Time;durP1;ratioP1;P1;durP2;ratioP2;P2;SDS_P1;SDS_P2;PMS_P1;PMS_P2;Temp;Humidity;BMP_temperature;BMP_pressure;BME280_temperature;BME280_humidity;BME280_pressure;Samples;Min_cycle;Max_cycle;Signal;HPM_P1;HPM_P2
2024/01/07 00:01:50;;;;;;;6.30;2.90;;;;;;;-0.52;56.64;100474.24;105340;1254;60437;-48
2024/01/07 00:04:18;;;;;;;7.20;3.00;;;;;;;-0.53;56.60;100474.81;105344;1254;63736;-47
2024/01/07 00:06:46;;;;;;;8.10;2.70;;;;;;;-0.47;56.48;100479.27;105973;1258;69680;-47
2024/01/07 00:09:16;;;;;;;6.00;2.00;;;;;;;-0.40;56.51;100489.56;105394;1260;72390;-47
2024/01/07 00:11:43;;;;;;;6.30;2.80;;;;;;;-0.38;56.49;100497.06;105989;1260;60475;-47
2024/01/07 00:14:11;;;;;;;8.10;3.20;;;;;;;-0.40;56.48;100509.00;105309;1254;60576;-48
2024/01/07 00:16:40;;;;;;;7.40;4.10;;;;;;;-0.44;56.32;100514.49;105317;1254;73139;-47
2024/01/07 00:19:07;;;;;;;7.30;3.50;;;;;;;-0.46;56.04;100520.22;105386;1258;68979;-47
2024/01/07 00:21:35;;;;;;;6.80;2.20;;;;;;;-0.49;55.96;100523.42;105327;1254;72581;-47
2024/01/07 00:24:03;;;;;;;9.10;3.40;;;;;;;-0.53;55.96;100521.32;105345;1259;60562;-48
2024/01/07 00:26:31;;;;;;;7.90;2.80;;;;;;;-0.54;55.92;100521.89;105629;1259;60514;-47
2024/01/07 00:28:58;;;;;;;9.00;3.40;;;;;;;-0.56;56.08;100518.13;105653;1254;73760;-49
2024/01/07 00:31:26;;;;;;;8.60;2.90;;;;;;;-0.50;55.85;100519.34;105598;1254;70547;-47
2024/01/07 00:33:53;;;;;;;6.90;2.00;;;;;;;-0.43;55.85;100517.02;105299;1259;71285;-50
2024/01/07 00:36:21;;;;;;;8.40;2.70;;;;;;;-0.40;55.70;100516.59;105794;1259;60565;-47
2024/01/07 00:38:49;;;;;;;6.20;1.80;;;;;;;-0.39;55.67;100512.44;105256;1254;60395;-50
2024/01/07 00:41:16;;;;;;;5.10;1.90;;;;;;;-0.41;55.58;100515.60;105332;1254;73824;-53
2024/01/07 00:43:44;;;;;;;6.20;2.10;;;;;;;-0.43;55.63;100518.94;105353;1254;69951;-48
2024/01/07 00:46:11;;;;;;;8.60;1.70;;;;;;;-0.44;55.53;100524.33;105309;1254;72734;-47
2024/01/07 00:48:39;;;;;;;9.90;3.80;;;;;;;-0.51;55.49;100526.95;105343;1255;60562;-47
2024/01/07 00:51:07;;;;;;;6.10;2.30;;;;;;;-0.59;55.17;100523.92;105371;1259;60308;-48
2024/01/07 00:53:34;;;;;;;7.10;2.20;;;;;;;-0.62;55.28;100524.89;105447;1254;74419;-47
2024/01/07 00:56:02;;;;;;;4.80;1.70;;;;;;;-0.59;55.07;100520.14;105281;1254;69960;-48
2024/01/07 00:58:30;;;;;;;5.60;1.70;;;;;;;-0.59;55.23;100519.78;105257;1257;72670;-48
2024/01/07 01:00:59;;;;;;;6.60;2.20;;;;;;;-0.63;55.46;100520.42;105640;1254;61677;-48
2024/01/07 01:03:27;;;;;;;8.00;2.50;;;;;;;-0.64;55.28;100520.46;105343;1254;60320;-46
2024/01/07 01:05:55;;;;;;;4.90;2.10;;;;;;;-0.68;55.27;100524.38;105593;1254;74354;-47
2024/01/07 01:08:23;;;;;;;5.60;1.70;;;;;;;-0.71;55.30;100522.23;105297;1258;68518;-48
2024/01/07 01:10:50;;;;;;;8.10;2.10;;;;;;;-0.75;55.30;100523.38;105278;1254;72683;-50
2024/01/07 01:13:18;;;;;;;5.80;2.00;;;;;;;-0.81;55.26;100526.32;105907;1254;60535;-47
2024/01/07 01:15:46;;;;;;;6.30;2.60;;;;;;;-0.81;55.33;100524.79;105381;1259;60455;-47
2024/01/07 01:18:13;;;;;;;5.40;1.50;;;;;;;-0.74;55.11;100520.95;105336;1254;72623;-47
2024/01/07 01:20:41;;;;;;;6.40;2.10;;;;;;;-0.68;55.03;100524.55;105314;1257;70502;-47
2024/01/07 01:23:08;;;;;;;7.60;2.10;;;;;;;-0.66;55.15;100518.63;105399;1259;71485;-47
2024/01/07 01:25:37;;;;;;;7.00;2.10;;;;;;;-0.64;55.00;100525.28;105335;1259;60538;-47
2024/01/07 01:28:05;;;;;;;7.30;3.30;;;;;;;-0.64;55.11;100521.50;105507;1260;60371;-47
2024/01/07 01:30:32;;;;;;;4.80;1.70;;;;;;;-0.68;54.89;100519.53;105511;1254;73140;-47
2024/01/07 01:33:02;;;;;;;5.50;2.10;;;;;;;-0.65;54.52;100526.00;105265;1261;69975;-47
2024/01/07 01:35:29;;;;;;;6.60;1.80;;;;;;;-0.68;54.51;100530.92;105498;1257;71732;-47
2024/01/07 01:37:57;;;;;;;5.70;2.40;;;;;;;-0.71;54.55;100526.19;105236;1259;60454;-48
2024/01/07 01:40:25;;;;;;;5.30;1.60;;;;;;;-0.76;54.32;100531.52;105210;1262;60441;-47
2024/01/07 01:42:52;;;;;;;7.20;1.80;;;;;;;-0.72;54.31;100535.52;105260;1257;72589;-47
2024/01/07 01:45:20;;;;;;;6.40;2.00;;;;;;;-0.64;54.33;100539.41;105710;1258;69881;-48
2024/01/07 01:47:48;;;;;;;6.30;1.70;;;;;;;-0.63;54.33;100541.61;105273;1254;71274;-48
2024/01/07 01:50:17;;;;;;;5.30;1.60;;;;;;;-0.63;54.47;100541.11;105256;1257;60651;-48
2024/01/07 01:52:45;;;;;;;4.60;1.60;;;;;;;-0.62;54.62;100539.85;105304;1257;60995;-48
2024/01/07 01:55:13;;;;;;;5.40;1.70;;;;;;;-0.64;54.50;100535.63;105330;1254;72438;-48
2024/01/07 01:57:41;;;;;;;7.30;1.80;;;;;;;-0.67;54.64;100537.79;105307;1259;70273;-48
2024/01/07 02:00:09;;;;;;;6.90;3.00;;;;;;;-0.70;54.56;100537.88;104912;1257;72735;-48
2024/01/07 02:02:37;;;;;;;6.20;2.50;;;;;;;-0.77;54.34;100538.77;105415;1254;60517;-47
2024/01/07 02:05:05;;;;;;;6.40;2.50;;;;;;;-0.81;54.65;100544.61;105288;1254;60469;-47
2024/01/07 02:07:33;;;;;;;7.20;3.00;;;;;;;-0.75;54.71;100545.94;105398;1254;76237;-47
2024/01/07 02:10:00;;;;;;;6.40;1.80;;;;;;;-0.67;54.62;100545.03;105302;1254;70276;-47
2024/01/07 02:12:28;;;;;;;6.20;2.30;;;;;;;-0.65;54.67;100538.91;105506;1254;71410;-47
2024/01/07 02:14:56;;;;;;;7.60;2.80;;;;;;;-0.66;54.61;100536.89;104989;1260;60418;-46
2024/01/07 02:17:23;;;;;;;8.20;3.00;;;;;;;-0.69;54.74;100542.50;105072;1257;60678;-47
2024/01/07 02:19:51;;;;;;;8.10;2.90;;;;;;;-0.74;54.99;100539.02;105244;1254;72664;-47
2024/01/07 02:22:19;;;;;;;7.00;3.00;;;;;;;-0.78;55.01;100537.96;105246;1259;68878;-47
2024/01/07 02:24:47;;;;;;;8.00;2.80;;;;;;;-0.85;55.18;100541.44;105331;1254;71368;-48
2024/01/07 02:27:14;;;;;;;10.60;4.10;;;;;;;-0.90;55.37;100539.17;105994;1259;60401;-48
2024/01/07 02:29:42;;;;;;;7.80;2.70;;;;;;;-0.97;55.44;100536.61;105327;1254;60517;-48
2024/01/07 02:32:10;;;;;;;8.60;3.30;;;;;;;-1.01;55.52;100535.19;105317;1254;72663;-48
2024/01/07 02:34:37;;;;;;;9.20;2.90;;;;;;;-0.99;55.62;100534.78;105383;1259;68812;-48
2024/01/07 02:37:05;;;;;;;7.60;1.90;;;;;;;-1.01;55.63;100530.02;105570;1258;71818;-48
2024/01/07 02:39:33;;;;;;;9.60;4.00;;;;;;;-1.07;55.64;100531.41;105321;1254;60524;-51
2024/01/07 02:42:01;;;;;;;7.90;2.90;;;;;;;-1.12;55.85;100534.31;105727;1258;60471;-48
2024/01/07 02:44:29;;;;;;;7.70;3.50;;;;;;;-1.14;55.98;100531.12;105320;1254;72990;-48
2024/01/07 02:46:56;;;;;;;10.80;3.10;;;;;;;-1.17;56.10;100532.75;105800;1259;70712;-47
2024/01/07 02:49:24;;;;;;;7.70;2.60;;;;;;;-1.24;56.06;100534.31;105343;1254;72733;-48
2024/01/07 02:51:52;;;;;;;8.30;2.50;;;;;;;-1.27;56.02;100538.89;105816;1258;61167;-48
2024/01/07 02:54:19;;;;;;;9.60;3.00;;;;;;;-1.27;55.90;100532.70;105360;1259;60368;-47
2024/01/07 02:56:47;;;;;;;6.60;1.70;;;;;;;-1.21;55.91;100536.31;105333;1254;72742;-49
2024/01/07 02:59:14;;;;;;;6.80;2.00;;;;;;;-1.18;55.86;100537.94;105980;1254;69949;-48
2024/01/07 03:01:42;;;;;;;7.80;3.70;;;;;;;-1.18;55.77;100539.66;105307;1259;73181;-47
2024/01/07 03:04:10;;;;;;;8.60;3.40;;;;;;;-1.25;55.96;100545.37;105202;1260;60495;-45
2024/01/07 03:06:38;;;;;;;8.90;2.90;;;;;;;-1.38;56.10;100545.21;105410;1254;60628;-47
2024/01/07 03:09:06;;;;;;;7.40;3.70;;;;;;;-1.48;56.25;100542.90;105280;1254;73735;-46
2024/01/07 03:11:34;;;;;;;9.50;3.10;;;;;;;-1.57;56.45;100547.97;105467;1259;70210;-46
2024/01/07 03:14:01;;;;;;;5.50;2.10;;;;;;;-1.63;56.48;100557.92;105416;1254;71357;-48
2024/01/07 03:16:29;;;;;;;8.90;2.80;;;;;;;-1.61;56.59;100557.39;105371;1254;61669;-47
2024/01/07 03:18:56;;;;;;;6.00;2.20;;;;;;;-1.58;56.52;100562.44;105375;1259;60749;-48
2024/01/07 03:21:24;;;;;;;7.00;2.20;;;;;;;-1.56;56.26;100567.54;105797;1254;73812;-48
2024/01/07 03:23:52;;;;;;;5.40;1.50;;;;;;;-1.57;56.34;100574.63;105353;1256;69089;-48
2024/01/07 03:26:20;;;;;;;6.40;2.60;;;;;;;-1.62;56.53;100571.14;105281;1254;72958;-47
2024/01/07 03:28:47;;;;;;;8.60;3.40;;;;;;;-1.70;56.03;100570.99;106734;1254;60553;-48
2024/01/07 03:31:15;;;;;;;7.90;3.50;;;;;;;-1.77;56.28;100574.14;105336;1259;60546;-48
2024/01/07 03:33:44;;;;;;;8.80;2.40;;;;;;;-1.85;56.35;100573.65;105324;1254;73876;-48
2024/01/07 03:36:12;;;;;;;8.60;3.80;;;;;;;-1.93;56.47;100576.42;105358;1260;69583;-48
2024/01/07 03:38:40;;;;;;;8.10;3.60;;;;;;;-1.95;56.47;100588.34;105324;1257;72689;-47
2024/01/07 03:41:08;;;;;;;8.50;3.20;;;;;;;-1.89;56.32;100588.20;105451;1254;60953;-48
2024/01/07 03:43:37;;;;;;;5.30;1.50;;;;;;;-1.84;56.30;100593.05;105301;1260;60536;-48
2024/01/07 03:46:05;;;;;;;7.50;2.80;;;;;;;-1.84;56.27;100594.94;105483;1254;73862;-48
2024/01/07 03:48:32;;;;;;;9.80;2.30;;;;;;;-1.90;56.17;100593.02;105545;1254;70455;-46
2024/01/07 03:51:00;;;;;;;5.60;2.10;;;;;;;-1.99;56.00;100593.41;105374;1254;71414;-48
2024/01/07 03:53:28;;;;;;;7.40;2.40;;;;;;;-2.08;56.12;100590.20;105445;1258;61165;-48
2024/01/07 03:55:55;;;;;;;6.80;2.90;;;;;;;-2.14;56.13;100594.98;105306;1259;60361;-47
2024/01/07 03:58:23;;;;;;;8.40;2.80;;;;;;;-2.22;56.08;100590.02;105402;1254;73750;-47
2024/01/07 04:00:50;;;;;;;7.00;2.10;;;;;;;-2.28;56.01;100593.61;105360;1260;69451;-48
2024/01/07 04:03:18;;;;;;;6.80;2.70;;;;;;;-2.26;56.09;100591.16;105284;1260;73102;-48
2024/01/07 04:05:46;;;;;;;7.80;2.80;;;;;;;-2.21;56.25;100603.41;105391;1254;60507;-47
2024/01/07 04:08:15;;;;;;;11.30;4.30;;;;;;;-2.21;56.14;100601.35;106163;1257;60369;-47
2024/01/07 04:10:43;;;;;;;6.30;2.10;;;;;;;-2.27;56.07;100600.61;105454;1255;73773;-47
2024/01/07 04:13:10;;;;;;;8.60;3.30;;;;;;;-2.34;56.16;100606.80;105370;1254;69031;-47
2024/01/07 04:15:38;;;;;;;8.30;3.60;;;;;;;-2.41;56.02;100606.27;105325;1255;72721;-48
2024/01/07 04:18:06;;;;;;;9.10;3.30;;;;;;;-2.46;56.04;100614.79;105349;1259;60460;-47
2024/01/07 04:20:34;;;;;;;7.70;3.60;;;;;;;-2.49;56.17;100623.11;105304;1259;60350;-47
2024/01/07 04:23:01;;;;;;;6.30;2.80;;;;;;;-2.50;56.20;100628.81;105611;1257;72674;-49
2024/01/07 04:25:29;;;;;;;8.20;3.00;;;;;;;-2.53;56.25;100629.22;105172;1260;70125;-47
2024/01/07 04:27:56;;;;;;;7.70;3.00;;;;;;;-2.47;56.27;100634.08;105293;1254;72421;-48
2024/01/07 04:30:24;;;;;;;8.50;2.50;;;;;;;-2.40;55.84;100635.13;105326;1254;60601;-48
2024/01/07 04:32:52;;;;;;;8.40;3.00;;;;;;;-2.40;55.67;100637.88;105439;1260;60351;-48
2024/01/07 04:35:19;;;;;;;4.90;2.20;;;;;;;-2.42;55.55;100643.76;105880;1260;74255;-47
2024/01/07 04:37:47;;;;;;;6.00;2.10;;;;;;;-2.44;55.63;100650.14;105260;1260;70499;-47
2024/01/07 04:40:15;;;;;;;7.90;3.10;;;;;;;-2.49;55.58;100649.74;105360;1255;72416;-48
2024/01/07 04:42:42;;;;;;;9.00;3.10;;;;;;;-2.53;55.65;100644.16;105273;1257;60559;-47
2024/01/07 04:45:10;;;;;;;8.80;3.00;;;;;;;-2.61;55.43;100642.44;105358;1260;60483;-47
2024/01/07 04:47:37;;;;;;;6.70;2.80;;;;;;;-2.68;55.66;100640.70;105309;1260;74221;-48
2024/01/07 04:50:06;;;;;;;7.80;2.40;;;;;;;-2.72;55.84;100646.80;105308;1259;69034;-49
2024/01/07 04:52:33;;;;;;;8.20;3.30;;;;;;;-2.76;55.84;100646.54;105447;1258;73262;-48
2024/01/07 04:55:01;;;;;;;6.30;2.30;;;;;;;-2.73;55.57;100645.11;105283;1258;61648;-48
2024/01/07 04:57:28;;;;;;;9.00;3.50;;;;;;;-2.67;55.42;100652.70;105787;1257;61708;-48
2024/01/07 04:59:56;;;;;;;8.80;3.60;;;;;;;-2.66;55.19;100650.29;105352;1254;73846;-48
2024/01/07 05:02:24;;;;;;;7.30;2.60;;;;;;;-2.70;55.22;100644.70;105350;1254;69928;-48
2024/01/07 05:04:51;;;;;;;8.80;2.60;;;;;;;-2.76;55.25;100649.45;105376;1259;72672;-48
2024/01/07 05:07:19;;;;;;;9.10;3.10;;;;;;;-2.81;54.99;100652.30;105288;1255;60635;-50
2024/01/07 05:09:46;;;;;;;6.80;2.10;;;;;;;-2.88;55.05;100652.27;105960;1254;60619;-48
2024/01/07 05:12:14;;;;;;;6.40;2.40;;;;;;;-2.94;55.07;100662.01;106115;1254;73883;-49
2024/01/07 05:14:42;;;;;;;10.10;2.70;;;;;;;-3.02;54.83;100673.66;105324;1254;70031;-47
2024/01/07 05:17:10;;;;;;;10.40;4.00;;;;;;;-3.10;55.06;100669.88;106061;1254;72804;-48
2024/01/07 05:19:41;;;;;;;7.50;3.50;;;;;;;-3.19;55.06;100669.35;105294;1254;62157;-47
2024/01/07 05:22:09;;;;;;;6.00;2.00;;;;;;;-3.17;55.10;100672.57;105301;1254;61451;-47
2024/01/07 05:24:38;;;;;;;6.20;1.90;;;;;;;-3.15;54.97;100674.59;105242;1259;346623;-47
2024/01/07 05:39:08;;;;;;;7.60;3.00;;;;;;;-3.28;54.99;100684.37;103315;1282;604253;-47
2024/01/07 05:41:38;;;;;;;6.20;1.80;;;;;;;-2.88;53.73;100679.23;104396;1264;136767;-49
2024/01/07 05:44:06;;;;;;;7.40;2.70;;;;;;;-2.98;53.92;100679.09;104733;1268;60010;-48
2024/01/07 05:46:34;;;;;;;8.80;2.50;;;;;;;-3.06;54.06;100677.34;105629;1266;72048;-47
2024/01/07 05:49:02;;;;;;;8.60;2.50;;;;;;;-3.03;53.96;100676.59;104660;1266;70351;-47
2024/01/07 05:51:29;;;;;;;6.00;1.80;;;;;;;-2.96;54.06;100668.77;104681;1266;72744;-47
2024/01/07 05:53:57;;;;;;;5.30;2.10;;;;;;;-2.98;54.07;100667.23;104916;1259;59857;-48
2024/01/07 05:56:24;;;;;;;5.90;2.10;;;;;;;-3.02;54.13;100669.54;104952;1259;59998;-47
2024/01/07 05:58:52;;;;;;;6.50;2.30;;;;;;;-3.06;53.98;100673.05;105007;1262;72069;-48
2024/01/07 06:01:20;;;;;;;9.00;2.80;;;;;;;-3.13;53.80;100676.97;105149;1256;69948;-48
2024/01/07 06:03:48;;;;;;;7.50;2.80;;;;;;;-3.20;53.94;100684.80;105726;1262;72475;-48
2024/01/07 06:06:16;;;;;;;5.70;1.70;;;;;;;-3.27;53.99;100687.68;105122;1259;59667;-48
2024/01/07 06:08:44;;;;;;;3.70;1.60;;;;;;;-3.34;54.01;100695.35;105029;1262;59590;-48
2024/01/07 06:11:18;;;;;;;6.90;2.10;;;;;;;-3.43;54.18;100686.77;105131;1259;72679;-48
2024/01/07 06:13:46;;;;;;;5.90;1.90;;;;;;;-3.50;54.31;100692.55;105714;1259;70291;-48
2024/01/07 06:16:14;;;;;;;8.90;2.30;;;;;;;-3.56;54.38;100694.52;105148;1257;72441;-47
2024/01/07 06:18:42;;;;;;;11.70;2.60;;;;;;;-3.50;54.34;100689.63;105090;1260;59945;-47
2024/01/07 06:21:09;;;;;;;5.00;2.40;;;;;;;-3.39;54.34;100689.27;105017;1262;59564;-47
2024/01/07 06:23:37;;;;;;;7.00;2.70;;;;;;;-3.32;54.32;100690.19;104973;1264;73007;-48
2024/01/07 06:26:05;;;;;;;12.00;3.00;;;;;;;-3.31;54.39;100687.07;105156;1262;68820;-47
2024/01/07 06:28:33;;;;;;;6.40;2.30;;;;;;;-3.33;54.32;100679.55;105307;1260;72705;-47
2024/01/07 06:31:03;;;;;;;7.80;3.20;;;;;;;-3.39;54.37;100681.56;105450;1260;59816;-50
2024/01/07 06:33:31;;;;;;;5.60;1.50;;;;;;;-3.42;54.20;100687.80;105350;1259;59772;-49
2024/01/07 06:36:00;;;;;;;5.50;2.00;;;;;;;-3.47;54.38;100693.87;105355;1256;73497;-49
2024/01/07 06:38:27;;;;;;;10.30;2.90;;;;;;;-3.51;54.20;100694.11;105360;1262;70541;-49
2024/01/07 06:40:55;;;;;;;5.10;1.50;;;;;;;-3.55;54.16;100699.31;105456;1257;72702;-50
2024/01/07 06:43:27;;;;;;;5.90;1.90;;;;;;;-3.58;54.28;100701.77;104977;1260;60010;-49
2024/01/07 06:45:55;;;;;;;6.60;2.00;;;;;;;-3.60;54.38;100699.92;105051;1260;59538;-49
2024/01/07 06:48:23;;;;;;;5.80;2.20;;;;;;;-3.61;54.29;100701.81;105005;1264;72165;-49
2024/01/07 06:50:51;;;;;;;8.30;4.40;;;;;;;-3.55;53.94;100695.20;105580;1262;70276;-49
2024/01/07 06:53:18;;;;;;;6.40;1.90;;;;;;;-3.51;53.91;100699.59;105132;1257;72667;-49
2024/01/07 06:55:46;;;;;;;6.30;2.50;;;;;;;-3.52;53.74;100703.57;105106;1257;59847;-47
2024/01/07 06:58:14;;;;;;;5.50;1.80;;;;;;;-3.55;53.76;100707.04;105816;1259;59724;-48
2024/01/07 07:00:42;;;;;;;7.70;2.60;;;;;;;-3.60;53.75;100703.17;105687;1259;72066;-46
2024/01/07 07:03:11;;;;;;;5.60;2.30;;;;;;;-3.65;53.83;100701.20;105102;1264;71093;-46
2024/01/07 07:05:39;;;;;;;4.90;1.80;;;;;;;-3.69;53.77;100700.75;105177;1262;72692;-47
2024/01/07 07:08:08;;;;;;;6.80;2.00;;;;;;;-3.75;53.78;100705.65;105032;1257;59645;-47
2024/01/07 07:10:36;;;;;;;6.00;2.60;;;;;;;-3.80;53.88;100706.92;105060;1259;60020;-47
2024/01/07 07:13:04;;;;;;;7.60;2.00;;;;;;;-3.84;53.80;100708.86;105050;1256;73007;-47
2024/01/07 07:15:31;;;;;;;5.00;1.20;;;;;;;-3.86;53.71;100713.02;105297;1262;69337;-47
2024/01/07 07:17:59;;;;;;;6.60;2.10;;;;;;;-3.90;53.64;100708.80;106188;1262;72623;-47
2024/01/07 07:20:27;;;;;;;8.90;2.50;;;;;;;-3.87;53.57;100707.38;104932;1265;60416;-47
2024/01/07 07:22:54;;;;;;;5.00;2.30;;;;;;;-3.79;53.35;100711.38;105050;1262;60143;-49
2024/01/07 07:25:21;;;;;;;6.10;1.60;;;;;;;-3.77;53.20;100713.58;105060;1257;71789;-48
2024/01/07 07:27:49;;;;;;;7.80;2.10;;;;;;;-3.76;53.30;100714.23;104980;1259;69948;-47
2024/01/07 07:30:18;;;;;;;6.10;1.80;;;;;;;-3.72;53.46;100716.75;105280;1256;75339;-48
2024/01/07 07:32:45;;;;;;;5.90;2.00;;;;;;;-3.75;53.04;100714.73;106093;1253;61322;-46
2024/01/07 07:35:13;;;;;;;5.20;1.90;;;;;;;-3.80;53.02;100715.16;105357;1258;61580;-47
2024/01/07 07:37:41;;;;;;;5.10;2.40;;;;;;;-3.84;53.25;100715.55;105368;1253;73057;-46
2024/01/07 07:40:11;;;;;;;7.50;2.20;;;;;;;-3.87;53.26;100713.20;105413;1256;69987;-47
2024/01/07 07:42:39;;;;;;;7.30;2.80;;;;;;;-3.92;53.05;100710.71;105397;1258;72410;-48
2024/01/07 07:45:09;;;;;;;8.10;2.30;;;;;;;-4.03;52.97;100718.41;105288;1253;61817;-48
2024/01/07 07:47:36;;;;;;;8.00;1.60;;;;;;;-4.07;53.29;100719.50;105343;1254;60429;-48
2024/01/07 07:50:05;;;;;;;4.50;1.70;;;;;;;-4.09;53.40;100724.14;105349;1258;72987;-47
2024/01/07 07:52:33;;;;;;;5.60;1.20;;;;;;;-4.09;53.43;100723.81;105584;1257;69032;-47
2024/01/07 07:55:00;;;;;;;6.00;1.50;;;;;;;-3.98;53.50;100723.14;105772;1253;72631;-47
2024/01/07 07:57:28;;;;;;;6.80;1.70;;;;;;;-3.84;53.53;100721.89;105618;1259;60784;-47
2024/01/07 07:59:56;;;;;;;6.00;2.00;;;;;;;-3.74;53.35;100720.55;105953;1258;59707;-46
2024/01/07 08:02:26;;;;;;;6.20;2.70;;;;;;;-3.74;52.84;100724.66;105871;1253;72052;-47
2024/01/07 08:04:54;;;;;;;5.10;1.80;;;;;;;-3.77;52.86;100729.16;105921;1253;72401;-47
2024/01/07 08:07:21;;;;;;;7.70;2.00;;;;;;;-3.78;53.16;100729.86;105425;1253;73169;-47
2024/01/07 08:09:49;;;;;;;5.20;2.20;;;;;;;-3.78;53.11;100723.52;105413;1253;60008;-47
2024/01/07 08:12:17;;;;;;;5.20;1.80;;;;;;;-3.83;53.16;100724.28;105326;1258;59551;-47
2024/01/07 08:14:44;;;;;;;4.60;1.70;;;;;;;-3.89;53.19;100723.01;105299;1254;71900;-47
2024/01/07 08:17:12;;;;;;;5.20;1.60;;;;;;;-3.96;53.12;100729.95;105415;1254;70649;-47
2024/01/07 08:19:39;;;;;;;6.20;1.50;;;;;;;-4.00;53.42;100730.52;105343;1254;72494;-47
2024/01/07 08:22:09;;;;;;;6.80;1.80;;;;;;;-3.99;53.69;100729.49;105462;1254;59747;-47
2024/01/07 08:24:37;;;;;;;5.30;1.70;;;;;;;-3.97;53.70;100723.98;105456;1256;60202;-47
2024/01/07 08:27:05;;;;;;;5.20;2.00;;;;;;;-3.93;53.44;100729.91;105562;1259;73072;-49
2024/01/07 08:29:32;;;;;;;5.80;1.90;;;;;;;-3.87;53.08;100732.75;105424;1255;70546;-48
2024/01/07 08:32:00;;;;;;;7.00;2.30;;;;;;;-3.86;53.17;100735.30;105384;1254;72479;-47
2024/01/07 08:34:28;;;;;;;7.30;2.50;;;;;;;-3.86;53.14;100740.45;105519;1254;59688;-47
2024/01/07 08:36:56;;;;;;;6.80;2.00;;;;;;;-3.87;53.25;100744.39;105728;1253;60553;-47
2024/01/07 08:39:25;;;;;;;6.80;1.80;;;;;;;-3.87;53.27;100745.08;105837;1253;72245;-48
2024/01/07 08:41:54;;;;;;;6.30;2.20;;;;;;;-3.91;53.07;100742.23;105802;1253;70078;-48
2024/01/07 08:44:21;;;;;;;6.60;2.10;;;;;;;-3.97;52.95;100742.14;105861;1259;71365;-47
2024/01/07 08:46:49;;;;;;;7.60;2.90;;;;;;;-4.00;53.22;100740.30;105943;1254;60057;-47
2024/01/07 08:49:16;;;;;;;5.90;2.30;;;;;;;-4.02;53.02;100735.70;105348;1259;60618;-48
2024/01/07 08:51:44;;;;;;;6.00;2.10;;;;;;;-4.09;53.06;100737.68;106092;1259;73068;-47
2024/01/07 08:54:12;;;;;;;7.40;2.90;;;;;;;-4.16;53.24;100737.95;106766;1259;68711;-47
2024/01/07 08:56:40;;;;;;;7.50;1.80;;;;;;;-4.12;53.57;100734.30;105391;1259;71820;-47
2024/01/07 08:59:08;;;;;;;6.10;1.90;;;;;;;-3.98;53.58;100728.61;105368;1253;62184;-47
2024/01/07 09:01:35;;;;;;;5.70;2.00;;;;;;;-3.82;53.46;100727.17;105358;1253;60459;-47
2024/01/07 09:04:03;;;;;;;6.30;2.30;;;;;;;-3.75;53.06;100724.00;105279;1259;73008;-46
2024/01/07 09:06:32;;;;;;;5.90;1.90;;;;;;;-3.73;52.67;100721.39;105713;1256;70246;-47
2024/01/07 09:08:59;;;;;;;5.10;2.10;;;;;;;-3.75;52.41;100718.67;105612;1258;70667;-47
2024/01/07 09:11:27;;;;;;;6.30;1.90;;;;;;;-3.77;52.42;100725.56;105358;1254;60033;-47
2024/01/07 09:13:55;;;;;;;9.00;2.50;;;;;;;-3.82;52.48;100722.56;105483;1256;59944;-47
2024/01/07 09:16:22;;;;;;;7.20;1.60;;;;;;;-3.87;52.33;100715.95;105375;1254;74908;-47
2024/01/07 09:18:50;;;;;;;7.60;1.90;;;;;;;-3.93;52.42;100715.33;105305;1259;70087;-47
2024/01/07 09:21:18;;;;;;;8.20;2.90;;;;;;;-3.93;52.66;100724.61;105959;1254;73510;-47
2024/01/07 09:23:46;;;;;;;8.20;2.60;;;;;;;-3.97;52.31;100713.86;105314;1253;60386;-47
2024/01/07 09:26:13;;;;;;;7.20;2.30;;;;;;;-4.03;51.92;100711.56;105486;1257;60897;-47
2024/01/07 09:28:42;;;;;;;7.60;3.10;;;;;;;-4.14;51.84;100714.45;105495;1257;72838;-47
2024/01/07 09:31:10;;;;;;;7.10;3.20;;;;;;;-4.20;52.12;100713.50;105479;1259;70892;-48
2024/01/07 09:33:38;;;;;;;6.20;2.10;;;;;;;-4.16;52.09;100711.74;105320;1259;71346;-47
2024/01/07 09:36:07;;;;;;;6.70;1.90;;;;;;;-4.04;51.77;100712.94;105315;1255;61670;-47
2024/01/07 09:38:53;;;;;;;6.40;2.20;;;;;;;-3.94;51.78;100714.52;105423;1253;59746;-48
2024/01/07 09:41:21;;;;;;;4.10;1.40;;;;;;;-3.83;51.57;100715.54;106028;1253;73059;-47
2024/01/07 09:43:51;;;;;;;6.90;2.00;;;;;;;-3.68;51.53;100710.67;105348;1259;69162;-46
2024/01/07 09:46:19;;;;;;;5.90;1.60;;;;;;;-3.54;50.88;100707.54;106065;1256;72955;-46
2024/01/07 09:48:47;;;;;;;7.60;1.60;;;;;;;-3.48;50.55;100707.09;105325;1259;60474;-47
2024/01/07 09:51:15;;;;;;;4.60;1.20;;;;;;;-3.49;50.34;100703.67;105976;1259;60448;-47
2024/01/07 09:53:42;;;;;;;6.20;2.60;;;;;;;-3.51;50.37;100709.02;105311;1253;73829;-48
2024/01/07 09:56:20;;;;;;;9.40;2.30;;;;;;;-3.54;50.35;100711.66;105282;1260;70168;-46
2024/01/07 09:58:49;;;;;;;5.70;1.70;;;;;;;-3.57;50.44;100714.61;106045;1258;72626;-47
2024/01/07 10:01:17;;;;;;;4.90;2.10;;;;;;;-3.61;50.45;100714.15;105525;1256;60559;-46
2024/01/07 10:03:45;;;;;;;6.00;2.30;;;;;;;-3.72;50.28;100708.51;105378;1259;60408;-46
2024/01/07 10:06:14;;;;;;;7.20;1.90;;;;;;;-3.80;50.61;100704.52;105322;1259;73872;-46
2024/01/07 10:08:42;;;;;;;6.40;2.00;;;;;;;-3.85;50.60;100701.69;105371;1257;70359;-46
2024/01/07 10:11:09;;;;;;;6.70;2.60;;;;;;;-3.91;50.33;100701.77;105355;1260;71397;-46
2024/01/07 10:13:37;;;;;;;5.50;1.50;;;;;;;-3.99;50.50;100699.66;105270;1260;60450;-46
2024/01/07 10:16:04;;;;;;;6.10;2.30;;;;;;;-4.06;50.71;100696.01;105345;1259;60389;-47
2024/01/07 10:18:34;;;;;;;5.80;1.60;;;;;;;-4.13;50.76;100693.38;105412;1255;74302;-48
2024/01/07 10:21:05;;;;;;;6.00;1.70;;;;;;;-4.14;51.10;100688.92;105729;1253;68473;-47
2024/01/07 10:23:33;;;;;;;5.70;2.10;;;;;;;-4.06;51.15;100684.69;105427;1259;74829;-47
2024/01/07 10:26:02;;;;;;;19.80;3.80;;;;;;;-3.93;50.71;100680.89;106424;1259;61808;-47
2024/01/07 10:28:43;;;;;;;6.80;2.40;;;;;;;-3.83;50.67;100686.05;105340;1254;62722;-47
2024/01/07 10:31:10;;;;;;;5.70;1.70;;;;;;;-3.71;50.57;100684.50;105438;1257;73859;-48
2024/01/07 10:33:40;;;;;;;3.80;1.20;;;;;;;-3.56;50.36;100681.33;105378;1257;70140;-48
2024/01/07 10:36:07;;;;;;;7.40;1.90;;;;;;;-3.44;49.86;100685.42;105336;1259;72115;-47
2024/01/07 10:38:35;;;;;;;6.40;2.10;;;;;;;-3.33;49.35;100680.60;105309;1257;60840;-47
2024/01/07 10:41:03;;;;;;;4.80;1.80;;;;;;;-3.29;49.66;100677.43;105425;1259;60994;-47
2024/01/07 10:43:30;;;;;;;6.20;2.30;;;;;;;-3.30;49.33;100676.76;105275;1258;72593;-47
2024/01/07 10:46:00;;;;;;;6.70;2.50;;;;;;;-3.36;49.37;100672.58;105408;1259;70584;-47
2024/01/07 10:48:30;;;;;;;7.30;2.90;;;;;;;-3.46;48.97;100675.33;105739;1253;73022;-47
2024/01/07 10:51:00;;;;;;;10.20;2.60;;;;;;;-3.62;49.03;100670.79;105725;1253;60563;-47
2024/01/07 10:53:28;;;;;;;4.80;2.00;;;;;;;-3.78;49.22;100677.59;105678;1259;60559;-47
2024/01/07 10:56:00;;;;;;;9.30;2.20;;;;;;;-3.97;49.41;100677.54;105692;1256;72608;-47
2024/01/07 10:58:28;;;;;;;8.00;2.00;;;;;;;-4.10;49.77;100678.06;105592;1259;69998;-47
2024/01/07 11:00:56;;;;;;;6.10;1.60;;;;;;;-4.16;50.17;100672.68;105643;1260;71877;-47
2024/01/07 11:03:36;;;;;;;6.60;2.70;;;;;;;-4.20;50.55;100674.27;105723;1259;60469;-47
2024/01/07 11:06:12;;;;;;;6.30;2.30;;;;;;;-4.20;50.59;100668.63;105542;1258;60521;-47
2024/01/07 11:08:46;;;;;;;8.10;2.90;;;;;;;-4.19;50.56;100669.98;105454;1257;73848;-47
2024/01/07 11:11:25;;;;;;;7.60;1.80;;;;;;;-4.20;50.53;100670.86;105471;1259;70513;-47
2024/01/07 11:13:53;;;;;;;6.90;2.90;;;;;;;-4.08;50.40;100668.95;105739;1254;74902;-47
2024/01/07 11:16:41;;;;;;;4.80;1.30;;;;;;;-3.96;50.29;100660.54;105310;1253;60584;-47
2024/01/07 11:19:08;;;;;;;7.50;1.60;;;;;;;-3.86;49.41;100659.20;105474;1254;62268;-46
2024/01/07 11:21:36;;;;;;;6.80;2.10;;;;;;;-3.80;49.63;100663.90;105405;1260;73865;-47
2024/01/07 11:24:04;;;;;;;6.40;2.10;;;;;;;-3.71;49.69;100662.54;105335;1260;70163;-47
2024/01/07 11:26:32;;;;;;;6.10;2.60;;;;;;;-3.59;49.68;100653.94;105563;1257;72009;-47
2024/01/07 11:29:00;;;;;;;7.10;2.60;;;;;;;-3.53;49.44;100647.68;105501;1252;61587;-46
2024/01/07 11:31:39;;;;;;;7.30;2.40;;;;;;;-3.58;49.44;100644.66;105359;1256;60653;-46
2024/01/07 11:34:08;;;;;;;10.90;3.00;;;;;;;-3.68;49.19;100643.45;105340;1268;73773;-46